Beech Grove, Kentucky
Current Conditions -  °F | °C
As of 9:56 PM on Sunday 25 Jan 2015 (Local Time) from KOWB Reporting Station
Overcast Overcast  
Wind Chill: 33°   Ceiling: 600
Heat Index: 41°   Visibility: 7mi
Dew Point: 40°   Wind: 16mph
Humidity: 96%   Direction: 340°NNW
Pressure: 29.73"   Gusts: NA
Location:  37.61°N, 87.39°W
Report Text: KOWB 260356Z 34014KT 7SM OVC006 05/04 A2973 RMK AO2 T00500044 RAE49 P0000 SLP070
Loading
Personal Weather Stations






























Interactive Weather Map New forecast layout! Learn more

10-Day Weather Forecast

Advertisements
Track Severe Weather on mobile